createdAt,value
2023-02-16T00:01:56.006Z,6.80
2023-02-16T00:04:29.423Z,9.50
2023-02-16T00:06:57.948Z,7.20
2023-02-16T00:09:26.367Z,7.10
2023-02-16T00:12:13.588Z,7.80
2023-02-16T00:14:45.241Z,7.80
2023-02-16T00:17:14.365Z,8.30
2023-02-16T00:19:43.011Z,8.70
2023-02-16T00:24:41.110Z,5.60
2023-02-16T00:27:14.227Z,7.90
2023-02-16T00:29:45.654Z,9.90
2023-02-16T00:32:15.084Z,11.50
2023-02-16T00:34:46.397Z,8.70
2023-02-16T00:42:26.525Z,9.70
2023-02-16T00:44:56.912Z,8.00
2023-02-16T00:47:39.099Z,9.90
2023-02-16T00:50:24.297Z,9.20
2023-02-16T00:52:53.006Z,11.00
2023-02-16T00:55:26.044Z,5.70
2023-02-16T00:58:02.693Z,11.30
2023-02-16T01:00:37.937Z,12.50
2023-02-16T01:03:11.830Z,12.20
2023-02-16T01:05:40.589Z,11.70
2023-02-16T01:08:32.516Z,6.70
2023-02-16T01:11:10.507Z,9.40
2023-02-16T01:13:47.550Z,10.90
2023-02-16T01:16:24.755Z,12.20
2023-02-16T01:18:54.167Z,9.80
2023-02-16T01:21:22.597Z,9.60
2023-02-16T01:23:50.839Z,9.40
2023-02-16T01:26:21.408Z,10.70
2023-02-16T01:28:50.816Z,7.90
2023-02-16T01:31:19.465Z,9.60
2023-02-16T01:33:48.083Z,13.20
2023-02-16T01:36:24.298Z,13.80
2023-02-16T01:38:52.840Z,9.10
2023-02-16T01:41:40.354Z,8.00
2023-02-16T01:44:12.001Z,12.50
2023-02-16T01:46:42.394Z,10.90
2023-02-16T01:49:15.148Z,12.60
2023-02-16T01:51:49.462Z,10.60
2023-02-16T01:54:34.146Z,11.50
2023-02-16T01:57:08.946Z,15.60
2023-02-16T01:59:37.501Z,13.00
2023-02-16T02:02:17.759Z,16.10
2023-02-16T02:05:08.733Z,13.50
2023-02-16T02:07:56.396Z,17.50
2023-02-16T02:10:50.562Z,13.30
2023-02-16T02:13:29.709Z,11.70
2023-02-16T02:15:59.164Z,12.60
2023-02-16T02:18:28.229Z,11.30
2023-02-16T02:21:40.080Z,12.10
2023-02-16T02:24:08.557Z,10.40
2023-02-16T02:26:56.105Z,11.10
2023-02-16T02:30:00.446Z,10.90
2023-02-16T02:32:47.346Z,15.20
2023-02-16T02:35:42.918Z,12.80
2023-02-16T02:38:13.445Z,9.60
2023-02-16T02:40:47.257Z,11.80
2023-02-16T02:43:33.353Z,8.90
2023-02-16T02:46:16.684Z,13.80
2023-02-16T02:48:45.551Z,12.70
2023-02-16T02:51:29.040Z,14.10
2023-02-16T02:54:26.104Z,13.50
2023-02-16T02:57:28.565Z,12.40
2023-02-16T03:00:26.357Z,13.30
2023-02-16T03:03:34.354Z,14.90
2023-02-16T03:06:33.246Z,14.30
2023-02-16T03:09:11.681Z,11.50
2023-02-16T03:12:00.276Z,12.30
2023-02-16T03:14:29.014Z,21.60
2023-02-16T03:17:17.721Z,14.60
2023-02-16T03:20:06.824Z,17.20
2023-02-16T03:22:54.504Z,17.10
2023-02-16T03:25:42.427Z,14.80
2023-02-16T03:28:29.855Z,21.00
2023-02-16T03:30:59.347Z,20.60
2023-02-16T03:35:56.343Z,21.80
2023-02-16T03:38:25.965Z,27.40
2023-02-16T03:40:54.682Z,30.00
2023-02-16T03:43:26.513Z,32.80
2023-02-16T03:45:54.879Z,36.90
2023-02-16T03:48:23.264Z,42.20
2023-02-16T03:50:52.112Z,45.50
2023-02-16T03:53:21.356Z,36.80
2023-02-16T03:55:49.852Z,34.00
2023-02-16T03:58:21.282Z,33.90
2023-02-16T04:00:50.138Z,33.20
2023-02-16T04:03:19.805Z,35.50
2023-02-16T04:05:49.292Z,27.60
2023-02-16T04:08:18.967Z,30.20
2023-02-16T04:10:48.170Z,28.70
2023-02-16T04:15:45.713Z,28.00
2023-02-16T04:18:14.323Z,26.00
2023-02-16T04:20:43.557Z,23.50
2023-02-16T04:23:12.494Z,22.20
2023-02-16T04:28:11.373Z,21.70
2023-02-16T04:30:39.791Z,21.10
2023-02-16T04:33:08.478Z,17.20
2023-02-16T04:35:38.659Z,17.20
2023-02-16T04:38:07.080Z,19.20
2023-02-16T04:40:36.200Z,20.70
2023-02-16T04:43:04.627Z,24.90
2023-02-16T04:45:33.387Z,23.80
2023-02-16T04:48:01.784Z,29.40
2023-02-16T04:50:30.401Z,32.90
2023-02-16T04:52:59.249Z,28.30
2023-02-16T04:55:27.839Z,36.20
2023-02-16T04:57:56.334Z,29.10
2023-02-16T05:00:25.880Z,32.00
2023-02-16T05:02:54.402Z,31.40
2023-02-16T05:05:22.704Z,28.90
2023-02-16T05:07:50.948Z,32.60
2023-02-16T05:10:20.870Z,31.40
2023-02-16T05:13:08.264Z,36.10
2023-02-16T05:15:37.064Z,36.30
2023-02-16T05:18:10.067Z,32.40
2023-02-16T05:20:59.281Z,41.80
2023-02-16T05:23:27.691Z,46.80
2023-02-16T05:25:56.183Z,44.70
2023-02-16T05:28:25.666Z,40.20
2023-02-16T05:30:54.172Z,42.80
2023-02-16T05:33:24.160Z,44.00
2023-02-16T05:38:20.812Z,36.60
2023-02-16T05:43:19.327Z,35.20
2023-02-16T05:45:47.688Z,35.40
2023-02-16T05:48:15.963Z,31.90
2023-02-16T05:50:44.744Z,29.80
2023-02-16T05:53:15.216Z,32.90
2023-02-16T05:55:46.587Z,36.40
2023-02-16T05:58:17.325Z,49.50
2023-02-16T06:00:45.697Z,59.80
2023-02-16T06:03:14.155Z,55.90
2023-02-16T06:05:43.199Z,54.40
2023-02-16T06:08:17.389Z,49.60
2023-02-16T06:10:46.324Z,45.40
2023-02-16T06:13:17.513Z,43.50
2023-02-16T06:15:46.590Z,27.70
2023-02-16T06:18:15.186Z,32.60
2023-02-16T06:20:44.666Z,32.10
2023-02-16T06:23:13.164Z,31.20
2023-02-16T06:25:45.990Z,26.60
2023-02-16T06:28:15.546Z,28.10
2023-02-16T06:30:44.751Z,36.50
2023-02-16T06:33:13.789Z,26.20
2023-02-16T06:35:42.749Z,28.50
2023-02-16T06:38:11.352Z,24.70
2023-02-16T06:40:39.612Z,25.90
2023-02-16T06:43:08.246Z,13.20
2023-02-16T06:48:05.932Z,17.80
2023-02-16T06:53:05.173Z,16.20
2023-02-16T06:58:07.193Z,17.30
2023-02-16T07:00:36.141Z,20.30
2023-02-16T07:03:04.651Z,30.30
2023-02-16T07:05:33.485Z,24.60
2023-02-16T07:08:01.961Z,31.60
2023-02-16T07:10:40.384Z,39.10
2023-02-16T07:13:16.262Z,29.40
2023-02-16T07:15:46.816Z,34.90
2023-02-16T07:18:15.122Z,38.00
2023-02-16T07:20:46.124Z,45.10
2023-02-16T07:23:14.537Z,53.70
2023-02-16T07:25:42.840Z,45.40
2023-02-16T07:32:25.077Z,65.60
2023-02-16T07:34:53.717Z,82.00
2023-02-16T07:37:22.080Z,74.40
2023-02-16T07:39:50.645Z,73.90
2023-02-16T07:42:20.444Z,50.10
2023-02-16T07:44:49.294Z,49.50
2023-02-16T07:47:18.476Z,42.80
2023-02-16T07:49:47.428Z,45.40
2023-02-16T07:52:15.745Z,43.70
2023-02-16T07:54:47.299Z,33.20
2023-02-16T07:57:15.834Z,26.20
2023-02-16T07:59:44.657Z,30.20
2023-02-16T08:02:17.336Z,35.50
2023-02-16T08:04:47.126Z,29.60
2023-02-16T08:07:18.181Z,31.30
2023-02-16T08:09:47.089Z,28.40
2023-02-16T08:12:16.783Z,34.10
2023-02-16T08:17:17.678Z,27.20
2023-02-16T08:19:46.511Z,28.00
2023-02-16T08:22:15.064Z,29.60
2023-02-16T08:24:44.105Z,28.90
2023-02-16T08:27:12.627Z,28.80
2023-02-16T08:29:42.311Z,25.40
2023-02-16T08:32:11.984Z,24.00
2023-02-16T08:34:58.133Z,27.00
2023-02-16T08:37:26.609Z,26.10
2023-02-16T08:39:56.354Z,25.90
2023-02-16T08:42:24.737Z,25.30
2023-02-16T08:44:53.133Z,23.20
2023-02-16T08:47:21.704Z,29.70
2023-02-16T08:49:50.211Z,23.30
2023-02-16T08:52:19.359Z,19.00
2023-02-16T08:54:49.012Z,28.50
2023-02-16T08:57:18.903Z,20.30
2023-02-16T09:00:07.495Z,22.00
2023-02-16T09:02:36.456Z,18.00
2023-02-16T09:07:35.119Z,22.10
2023-02-16T09:10:04.472Z,17.80
2023-02-16T09:12:37.621Z,17.50
2023-02-16T09:15:06.870Z,22.90
2023-02-16T09:17:36.190Z,26.40
2023-02-16T09:20:05.959Z,16.90
2023-02-16T09:22:34.528Z,21.00
2023-02-16T09:25:04.070Z,26.80
2023-02-16T09:27:34.838Z,22.20
2023-02-16T09:30:04.207Z,21.10
2023-02-16T09:32:33.721Z,20.30
2023-02-16T09:35:02.162Z,20.50
2023-02-16T09:37:30.775Z,19.80
2023-02-16T09:39:59.755Z,20.20
2023-02-16T09:42:38.287Z,29.80
2023-02-16T09:45:11.441Z,24.40
2023-02-16T09:47:43.049Z,24.50
2023-02-16T09:50:38.624Z,27.30
2023-02-16T09:53:27.149Z,28.70
2023-02-16T09:56:20.291Z,24.90
2023-02-16T09:59:17.432Z,21.40
2023-02-16T10:01:57.246Z,21.60
2023-02-16T10:05:09.043Z,18.60
2023-02-16T10:07:57.609Z,26.90
2023-02-16T10:10:33.324Z,18.10
2023-02-16T10:13:06.145Z,25.40
2023-02-16T10:15:35.239Z,23.50
2023-02-16T10:18:33.808Z,20.20
2023-02-16T10:21:04.372Z,21.20
2023-02-16T10:24:05.451Z,24.20
2023-02-16T10:26:36.829Z,31.90
2023-02-16T10:29:16.138Z,27.70
2023-02-16T10:32:07.657Z,23.00
2023-02-16T10:34:57.589Z,24.80
2023-02-16T10:37:54.413Z,15.90
2023-02-16T10:40:29.146Z,16.10
2023-02-16T10:43:10.976Z,19.80
2023-02-16T10:45:51.904Z,19.80
2023-02-16T10:48:21.694Z,22.90
2023-02-16T10:50:59.107Z,16.50
2023-02-16T10:53:44.306Z,14.90
2023-02-16T10:56:52.627Z,18.60
2023-02-16T10:59:39.319Z,16.60
2023-02-16T11:02:20.978Z,18.60
2023-02-16T11:04:52.560Z,17.90
2023-02-16T11:07:25.701Z,15.30
2023-02-16T11:09:56.314Z,18.00
2023-02-16T11:12:34.367Z,18.50
2023-02-16T11:15:16.874Z,15.40
2023-02-16T11:17:58.362Z,19.40
2023-02-16T11:20:34.788Z,15.50
2023-02-16T11:31:39.429Z,14.00
2023-02-16T11:34:16.965Z,18.70
2023-02-16T11:36:47.272Z,16.90
2023-02-16T11:39:25.728Z,16.70
2023-02-16T11:42:01.734Z,20.10
2023-02-16T11:44:34.031Z,16.60
2023-02-16T11:47:21.424Z,24.40
2023-02-16T11:49:52.211Z,22.30
2023-02-16T11:52:23.227Z,17.60
2023-02-16T11:54:54.127Z,14.00
2023-02-16T11:57:33.796Z,11.70
2023-02-16T12:00:14.119Z,19.60
2023-02-16T12:03:08.745Z,16.80
2023-02-16T12:05:49.644Z,16.70
2023-02-16T12:08:25.105Z,18.60
2023-02-16T12:11:39.750Z,17.00
2023-02-16T12:14:27.479Z,11.70
2023-02-16T12:17:07.913Z,16.40
2023-02-16T12:19:36.212Z,16.10
2023-02-16T12:22:27.707Z,20.40
2023-02-16T12:25:31.610Z,11.40
2023-02-16T12:28:05.403Z,10.40
2023-02-16T12:30:52.862Z,11.50
2023-02-16T12:33:43.458Z,10.90
2023-02-16T12:36:24.034Z,14.90
2023-02-16T12:39:24.628Z,13.60
2023-02-16T12:42:12.201Z,20.30
2023-02-16T12:44:46.095Z,9.10
2023-02-16T12:47:21.480Z,12.80
2023-02-16T12:49:59.675Z,12.20
2023-02-16T12:53:03.159Z,13.10
2023-02-16T12:55:56.528Z,11.70
2023-02-16T12:58:31.462Z,12.80
2023-02-16T13:01:04.160Z,11.30
2023-02-16T13:03:32.909Z,9.20
2023-02-16T13:06:30.006Z,14.00
2023-02-16T13:09:27.908Z,13.20
2023-02-16T13:12:04.029Z,12.40
2023-02-16T13:14:34.523Z,12.50
2023-02-16T13:17:24.204Z,10.70
2023-02-16T13:19:52.874Z,11.40
2023-02-16T13:22:40.299Z,13.90
2023-02-16T13:25:31.611Z,15.40
2023-02-16T13:28:31.611Z,12.50
2023-02-16T13:31:18.506Z,13.80
2023-02-16T13:34:05.917Z,15.30
2023-02-16T13:36:49.892Z,15.90
2023-02-16T13:39:42.085Z,13.70
2023-02-16T13:42:35.642Z,12.80
2023-02-16T13:45:40.848Z,10.80
2023-02-16T13:48:21.775Z,9.70
2023-02-16T13:51:06.574Z,13.40
2023-02-16T13:53:37.999Z,8.60
2023-02-16T13:56:31.007Z,12.00
2023-02-16T13:59:18.676Z,9.90
2023-02-16T14:01:51.107Z,10.70
2023-02-16T14:04:22.424Z,14.30
2023-02-16T14:07:03.527Z,13.90
2023-02-16T14:09:37.939Z,16.50
2023-02-16T14:12:11.712Z,14.30
2023-02-16T14:14:43.030Z,11.20
2023-02-16T14:17:14.674Z,12.20
2023-02-16T14:20:02.304Z,11.40
2023-02-16T14:22:43.122Z,8.50
2023-02-16T14:25:22.545Z,13.70
2023-02-16T14:27:54.262Z,9.40
2023-02-16T14:30:36.363Z,12.10
2023-02-16T14:33:16.454Z,17.10
2023-02-16T14:36:14.323Z,14.30
2023-02-16T14:39:15.337Z,11.90
2023-02-16T14:41:45.466Z,11.50
2023-02-16T14:44:33.768Z,11.70
2023-02-16T14:47:23.042Z,13.60
2023-02-16T14:49:59.257Z,14.10
2023-02-16T14:52:47.547Z,18.30
2023-02-16T14:55:43.639Z,14.40
2023-02-16T14:58:23.499Z,14.80
2023-02-16T15:01:06.466Z,12.20
2023-02-16T15:03:40.466Z,15.50
2023-02-16T15:06:17.787Z,12.20
2023-02-16T15:08:49.041Z,12.00
2023-02-16T15:11:26.011Z,15.00
2023-02-16T15:13:54.864Z,16.50
2023-02-16T15:16:25.307Z,17.50
2023-02-16T15:21:28.585Z,14.00
2023-02-16T15:24:00.941Z,13.90
2023-02-16T15:26:31.534Z,10.60
2023-02-16T15:29:01.615Z,18.00
2023-02-16T15:31:37.212Z,16.70
2023-02-16T15:34:13.806Z,12.50
2023-02-16T15:36:44.575Z,14.60
2023-02-16T15:39:28.253Z,17.70
2023-02-16T15:42:29.234Z,23.40
2023-02-16T15:44:58.251Z,25.50
2023-02-16T15:47:28.890Z,25.10
2023-02-16T15:52:35.730Z,24.30
2023-02-16T15:57:37.221Z,26.50
2023-02-16T16:00:15.960Z,32.20
2023-02-16T16:02:50.098Z,29.40
2023-02-16T16:05:25.926Z,27.40
2023-02-16T16:07:57.427Z,22.10
2023-02-16T16:13:15.975Z,22.20
2023-02-16T16:15:48.767Z,25.20
2023-02-16T16:18:37.620Z,27.70
2023-02-16T16:21:19.175Z,36.40
2023-02-16T16:23:54.776Z,51.10
2023-02-16T16:26:23.822Z,51.90
2023-02-16T16:28:52.400Z,41.50
2023-02-16T16:31:20.798Z,36.60
2023-02-16T16:34:05.294Z,42.90
2023-02-16T16:36:47.095Z,40.60
2023-02-16T16:39:18.338Z,47.20
2023-02-16T16:42:12.035Z,69.10
2023-02-16T16:44:44.995Z,70.40
2023-02-16T16:47:19.660Z,54.90
2023-02-16T16:49:51.710Z,44.50
2023-02-16T16:52:59.244Z,39.70
2023-02-16T16:55:34.759Z,41.80
2023-02-16T16:58:08.267Z,45.90
2023-02-16T17:00:38.940Z,48.40
2023-02-16T17:03:08.579Z,51.80
2023-02-16T17:05:38.655Z,56.30
2023-02-16T17:08:08.471Z,55.40
2023-02-16T17:10:39.121Z,44.30
2023-02-16T17:13:08.154Z,40.40
2023-02-16T17:15:51.692Z,41.00
2023-02-16T17:18:21.190Z,51.90
2023-02-16T17:20:50.186Z,39.40
2023-02-16T17:25:47.403Z,37.80
2023-02-16T17:28:17.204Z,36.40
2023-02-16T17:30:45.521Z,43.30
2023-02-16T17:33:14.338Z,44.00
2023-02-16T17:38:13.258Z,39.80
2023-02-16T17:40:44.133Z,42.80
2023-02-16T17:43:13.659Z,34.00
2023-02-16T17:45:42.947Z,32.60
2023-02-16T17:48:22.317Z,31.70
2023-02-16T17:50:51.728Z,36.30
2023-02-16T17:53:21.708Z,37.00
2023-02-16T17:55:51.878Z,36.50
2023-02-16T17:58:23.966Z,31.70
2023-02-16T18:00:52.467Z,42.60
2023-02-16T18:03:23.091Z,36.10
2023-02-16T18:05:51.802Z,33.30
2023-02-16T18:08:20.710Z,33.10
2023-02-16T18:10:51.974Z,38.10
2023-02-16T18:13:20.550Z,34.60
2023-02-16T18:15:51.096Z,35.70
2023-02-16T18:23:18.330Z,43.00
2023-02-16T18:25:47.432Z,45.80
2023-02-16T18:28:20.744Z,52.60
2023-02-16T18:30:50.637Z,55.90
2023-02-16T18:33:22.048Z,48.30
2023-02-16T18:35:55.503Z,46.10
2023-02-16T18:38:24.215Z,40.20
2023-02-16T18:40:54.360Z,41.10
2023-02-16T18:43:23.323Z,37.70
2023-02-16T18:45:51.694Z,48.20
2023-02-16T18:48:20.056Z,48.40
2023-02-16T18:50:48.581Z,38.90
2023-02-16T18:55:45.713Z,33.30
2023-02-16T18:58:14.924Z,44.80
2023-02-16T19:00:44.525Z,41.30
2023-02-16T19:03:13.572Z,42.40
2023-02-16T19:05:42.610Z,40.10
2023-02-16T19:10:40.147Z,50.50
2023-02-16T19:13:08.772Z,47.20
2023-02-16T19:15:39.490Z,42.90
2023-02-16T19:20:37.467Z,36.10
2023-02-16T19:23:06.426Z,38.10
2023-02-16T19:26:03.378Z,43.20
2023-02-16T19:28:43.830Z,35.10
2023-02-16T19:31:19.842Z,42.40
2023-02-16T19:33:48.569Z,31.50
2023-02-16T19:36:17.663Z,35.70
2023-02-16T19:38:46.733Z,31.30
2023-02-16T19:41:19.405Z,29.40
2023-02-16T19:43:47.901Z,33.70
2023-02-16T19:46:16.956Z,30.10
2023-02-16T19:48:46.556Z,32.60
2023-02-16T19:51:15.476Z,34.90
2023-02-16T19:56:26.715Z,25.40
2023-02-16T19:59:01.325Z,29.30
2023-02-16T20:01:30.745Z,28.20
2023-02-16T20:04:00.233Z,34.80
2023-02-16T20:06:44.877Z,29.50
2023-02-16T20:09:17.478Z,25.50
2023-02-16T20:11:54.021Z,26.10
2023-02-16T20:14:28.324Z,30.10
2023-02-16T20:16:57.074Z,27.60
2023-02-16T20:19:29.876Z,29.90
2023-02-16T20:22:00.804Z,45.20
2023-02-16T20:24:30.852Z,59.70
2023-02-16T20:27:04.505Z,56.70
2023-02-16T20:29:33.071Z,51.10
2023-02-16T20:32:08.959Z,47.80
2023-02-16T20:34:43.109Z,49.40
2023-02-16T20:37:13.534Z,47.00
2023-02-16T20:39:43.252Z,47.50
2023-02-16T20:42:11.711Z,48.10
2023-02-16T20:44:40.380Z,54.20
2023-02-16T20:47:10.709Z,49.00
2023-02-16T20:49:39.855Z,45.10
2023-02-16T20:52:10.786Z,40.40
2023-02-16T20:54:39.348Z,45.00
2023-02-16T20:57:18.257Z,43.40
2023-02-16T21:00:28.169Z,57.50
2023-02-16T21:02:56.384Z,85.70
2023-02-16T21:05:24.705Z,143.70
2023-02-16T21:07:57.591Z,179.90
2023-02-16T21:10:54.984Z,106.20
2023-02-16T21:13:33.954Z,76.30
2023-02-16T21:16:03.384Z,65.50
2023-02-16T21:18:32.098Z,55.80
2023-02-16T21:21:01.641Z,49.70
2023-02-16T21:23:30.664Z,45.00
2023-02-16T21:26:00.581Z,43.50
2023-02-16T21:28:29.173Z,53.70
2023-02-16T21:31:01.990Z,51.80
2023-02-16T21:33:30.699Z,39.90
2023-02-16T21:36:05.554Z,44.30
2023-02-16T21:38:35.431Z,50.10
2023-02-16T21:41:26.514Z,37.80
2023-02-16T21:44:08.987Z,34.40
2023-02-16T21:46:41.131Z,35.00
2023-02-16T21:49:15.082Z,32.90
2023-02-16T21:51:43.889Z,35.10
2023-02-16T21:54:14.788Z,28.10
2023-02-16T21:56:45.784Z,31.90
2023-02-16T21:59:16.201Z,57.10
2023-02-16T22:01:46.640Z,89.90
2023-02-16T22:04:16.499Z,62.30
2023-02-16T22:06:46.980Z,80.60
2023-02-16T22:09:17.945Z,67.50
2023-02-16T22:11:46.828Z,82.30
2023-02-16T22:14:15.509Z,70.40
2023-02-16T22:16:48.060Z,72.50
2023-02-16T22:19:17.972Z,68.40
2023-02-16T22:21:46.797Z,62.80
2023-02-16T22:24:17.106Z,52.70
2023-02-16T22:26:47.539Z,51.50
2023-02-16T22:29:15.982Z,52.60
2023-02-16T22:32:13.145Z,58.60
2023-02-16T22:34:42.181Z,47.60
2023-02-16T22:37:12.031Z,53.70
2023-02-16T22:39:42.102Z,45.00
2023-02-16T22:42:12.072Z,44.10
2023-02-16T22:44:42.905Z,53.40
2023-02-16T22:47:12.759Z,48.20
2023-02-16T22:49:42.941Z,49.20
2023-02-16T22:52:12.141Z,42.80
2023-02-16T22:54:41.307Z,41.70
2023-02-16T22:59:41.156Z,40.10
2023-02-16T23:02:10.504Z,43.40
2023-02-16T23:04:41.208Z,55.30
2023-02-16T23:07:10.916Z,54.10
2023-02-16T23:09:39.536Z,50.00
2023-02-16T23:12:08.237Z,45.90
2023-02-16T23:14:37.601Z,43.50
2023-02-16T23:17:06.029Z,47.40
2023-02-16T23:19:34.501Z,53.00
2023-02-16T23:22:02.887Z,46.10
2023-02-16T23:27:00.722Z,47.50
2023-02-16T23:29:29.288Z,48.50
2023-02-16T23:31:57.930Z,41.10
2023-02-16T23:34:26.389Z,45.20
2023-02-16T23:36:55.432Z,41.60
2023-02-16T23:39:24.393Z,47.30
2023-02-16T23:41:53.162Z,40.80
2023-02-16T23:44:22.064Z,44.40
2023-02-16T23:46:50.495Z,46.60
2023-02-16T23:49:18.971Z,55.30
2023-02-16T23:51:47.308Z,56.10
2023-02-16T23:54:15.974Z,35.10
2023-02-16T23:56:44.300Z,38.40
2023-02-16T23:59:12.762Z,32.50
